createdAt,value
2022-08-20T00:02:01.358Z,12.43
2022-08-20T00:04:25.188Z,12.35
2022-08-20T00:06:48.809Z,12.10
2022-08-20T00:09:12.125Z,14.23
2022-08-20T00:11:35.739Z,10.15
2022-08-20T00:14:02.857Z,11.73
2022-08-20T00:16:27.105Z,11.20
2022-08-20T00:21:18.873Z,10.63
2022-08-20T00:23:43.645Z,11.30
2022-08-20T00:28:30.034Z,11.27
2022-08-20T00:30:54.723Z,12.90
2022-08-20T00:33:22.917Z,10.75
2022-08-20T00:35:48.362Z,11.27
2022-08-20T00:38:11.607Z,11.52
2022-08-20T00:40:36.453Z,11.18
2022-08-20T00:43:02.239Z,10.48
2022-08-20T00:45:25.730Z,12.35
2022-08-20T00:47:51.409Z,9.97
2022-08-20T00:50:17.295Z,11.07
2022-08-20T00:52:41.956Z,12.40
2022-08-20T00:55:13.607Z,10.93
2022-08-20T00:57:46.133Z,11.68
2022-08-20T01:00:24.765Z,10.52
2022-08-20T01:02:48.490Z,10.88
2022-08-20T01:05:13.752Z,10.23
2022-08-20T01:07:37.886Z,10.65
2022-08-20T01:10:01.222Z,9.13
2022-08-20T01:12:25.213Z,8.90
2022-08-20T01:14:48.574Z,9.15
2022-08-20T01:17:14.691Z,9.98
2022-08-20T01:19:40.939Z,9.13
2022-08-20T01:22:26.941Z,9.35
2022-08-20T01:24:50.415Z,8.38
2022-08-20T01:27:15.071Z,10.13
2022-08-20T01:29:39.956Z,11.68
2022-08-20T01:32:03.245Z,10.25
2022-08-20T01:34:26.551Z,12.27
2022-08-20T01:36:51.734Z,11.43
2022-08-20T01:39:17.322Z,10.20
2022-08-20T01:41:49.205Z,11.35
2022-08-20T01:44:16.937Z,9.95
2022-08-20T01:46:43.891Z,10.00
2022-08-20T01:49:13.497Z,12.32
2022-08-20T01:51:37.151Z,10.25
2022-08-20T01:54:00.883Z,10.77
2022-08-20T01:56:25.783Z,11.07
2022-08-20T01:58:55.886Z,10.93
2022-08-20T02:01:23.914Z,10.23
2022-08-20T02:03:47.255Z,9.82
2022-08-20T02:06:10.518Z,9.27
2022-08-20T02:08:33.970Z,9.50
2022-08-20T02:10:57.328Z,9.10
2022-08-20T02:13:20.565Z,10.38
2022-08-20T02:15:43.914Z,9.52
2022-08-20T02:18:11.489Z,10.30
2022-08-20T02:20:34.785Z,9.95
2022-08-20T02:22:59.262Z,9.77
2022-08-20T02:27:47.075Z,11.88
2022-08-20T02:30:27.579Z,13.00
2022-08-20T02:32:51.662Z,12.88
2022-08-20T02:35:21.202Z,12.02
2022-08-20T02:37:44.911Z,11.65
2022-08-20T02:40:09.644Z,12.85
2022-08-20T02:42:32.944Z,12.68
2022-08-20T02:44:58.621Z,11.68
2022-08-20T02:47:21.905Z,12.43
2022-08-20T02:49:45.299Z,12.52
2022-08-20T02:52:10.050Z,11.02
2022-08-20T02:54:33.432Z,12.57
2022-08-20T02:56:56.654Z,12.02
2022-08-20T02:59:20.152Z,10.50
2022-08-20T03:01:43.502Z,11.95
2022-08-20T03:04:06.954Z,10.02
2022-08-20T03:06:30.352Z,11.90
2022-08-20T03:08:55.177Z,10.13
2022-08-20T03:11:18.880Z,10.02
2022-08-20T03:13:42.259Z,9.70
2022-08-20T03:16:05.918Z,10.38
2022-08-20T03:18:34.681Z,11.48
2022-08-20T03:20:58.056Z,11.85
2022-08-20T03:23:21.647Z,13.70
2022-08-20T03:25:46.575Z,18.23
2022-08-20T03:28:09.842Z,15.90
2022-08-20T03:30:33.318Z,16.30
2022-08-20T03:32:56.670Z,21.52
2022-08-20T03:35:20.946Z,21.87
2022-08-20T03:37:44.188Z,19.73
2022-08-20T03:40:15.618Z,20.38
2022-08-20T03:42:40.451Z,17.63
2022-08-20T03:45:03.806Z,17.77
2022-08-20T03:47:27.035Z,16.98
2022-08-20T03:49:50.568Z,17.08
2022-08-20T03:52:14.311Z,15.93
2022-08-20T03:54:37.652Z,15.77
2022-08-20T03:57:03.026Z,15.48
2022-08-20T03:59:37.486Z,19.00
2022-08-20T04:02:01.060Z,20.15
2022-08-20T04:04:24.310Z,21.23
2022-08-20T04:06:48.154Z,22.38
2022-08-20T04:09:12.115Z,23.52
2022-08-20T04:11:35.706Z,27.25
2022-08-20T04:13:58.954Z,27.73
2022-08-20T04:16:23.653Z,29.17
2022-08-20T04:19:01.859Z,27.02
2022-08-20T04:21:26.200Z,26.02
2022-08-20T04:23:56.711Z,28.10
2022-08-20T04:26:20.315Z,27.80
2022-08-20T04:28:43.652Z,32.17
2022-08-20T04:31:06.899Z,32.45
2022-08-20T04:33:34.086Z,30.23
2022-08-20T04:36:00.456Z,37.22
2022-08-20T04:38:24.034Z,33.63
2022-08-20T04:40:57.992Z,29.80
2022-08-20T04:43:23.001Z,31.52
2022-08-20T04:45:47.196Z,33.22
2022-08-20T04:50:40.117Z,35.35
2022-08-20T04:53:03.846Z,35.88
2022-08-20T04:55:27.099Z,39.67
2022-08-20T04:57:50.374Z,35.55
2022-08-20T05:00:16.111Z,35.00
2022-08-20T05:02:39.359Z,33.80
2022-08-20T05:05:02.661Z,37.15
2022-08-20T05:07:27.283Z,35.30
2022-08-20T05:09:50.586Z,33.95
2022-08-20T05:12:18.148Z,32.30
2022-08-20T05:14:41.461Z,32.88
2022-08-20T05:17:06.380Z,28.90
2022-08-20T05:19:30.051Z,25.90
2022-08-20T05:21:53.798Z,33.20
2022-08-20T05:24:18.545Z,29.92
2022-08-20T05:26:41.796Z,23.92
2022-08-20T05:29:06.860Z,30.70
2022-08-20T05:31:31.237Z,26.77
2022-08-20T05:33:57.960Z,27.42
2022-08-20T05:36:22.634Z,28.13
2022-08-20T05:38:49.690Z,27.80
2022-08-20T05:41:14.856Z,26.58
2022-08-20T05:43:52.773Z,29.80
2022-08-20T05:46:16.985Z,27.75
2022-08-20T05:48:40.256Z,24.88
2022-08-20T05:51:03.630Z,27.55
2022-08-20T05:53:27.061Z,19.67
2022-08-20T05:55:50.599Z,20.98
2022-08-20T05:58:19.665Z,19.10
2022-08-20T06:00:42.937Z,16.98
2022-08-20T06:03:23.589Z,16.45
2022-08-20T06:05:46.913Z,22.35
2022-08-20T06:08:10.614Z,17.13
2022-08-20T06:10:33.959Z,20.17
2022-08-20T06:12:57.270Z,21.40
2022-08-20T06:15:22.115Z,20.63
2022-08-20T06:17:46.968Z,16.63
2022-08-20T06:20:21.541Z,15.43
2022-08-20T06:22:47.462Z,15.13
2022-08-20T06:25:11.239Z,13.00
2022-08-20T06:27:34.610Z,15.27
2022-08-20T06:29:59.035Z,14.73
2022-08-20T06:32:32.288Z,14.35
2022-08-20T06:34:56.155Z,12.40
2022-08-20T06:37:21.087Z,13.23
2022-08-20T06:39:44.473Z,11.93
2022-08-20T06:42:07.878Z,11.45
2022-08-20T06:44:31.230Z,10.27
2022-08-20T06:46:55.717Z,11.87
2022-08-20T06:49:20.370Z,9.85
2022-08-20T06:51:43.666Z,9.20
2022-08-20T06:54:07.588Z,10.48
2022-08-20T06:56:30.843Z,9.45
2022-08-20T06:58:54.118Z,9.50
2022-08-20T07:01:18.046Z,10.00
2022-08-20T07:03:42.180Z,8.65
2022-08-20T07:06:19.187Z,8.65
2022-08-20T07:08:42.421Z,8.23
2022-08-20T07:11:05.708Z,9.32
2022-08-20T07:13:29.274Z,9.55
2022-08-20T07:15:53.978Z,7.07
2022-08-20T07:18:17.988Z,8.30
2022-08-20T07:20:55.023Z,6.70
2022-08-20T07:23:19.638Z,6.72
2022-08-20T07:25:43.711Z,7.22
2022-08-20T07:28:08.221Z,9.30
2022-08-20T07:30:57.104Z,6.50
2022-08-20T07:33:21.097Z,6.53
2022-08-20T07:35:48.783Z,5.65
2022-08-20T07:38:15.599Z,6.80
2022-08-20T07:40:40.374Z,7.30
2022-08-20T07:43:03.748Z,6.55
2022-08-20T07:45:26.997Z,7.23
2022-08-20T07:47:53.646Z,6.85
2022-08-20T07:50:19.189Z,6.18
2022-08-20T07:52:42.592Z,5.82
2022-08-20T07:55:06.053Z,5.15
2022-08-20T07:57:30.789Z,5.97
2022-08-20T07:59:54.037Z,6.78
2022-08-20T08:02:17.414Z,6.33
2022-08-20T08:04:40.755Z,7.07
2022-08-20T08:07:04.027Z,6.60
2022-08-20T08:09:27.274Z,7.38
2022-08-20T08:11:52.407Z,5.82
2022-08-20T08:14:18.958Z,7.00
2022-08-20T08:16:45.757Z,7.45
2022-08-20T08:19:12.036Z,5.97
2022-08-20T08:21:35.387Z,6.20
2022-08-20T08:23:58.670Z,6.40
2022-08-20T08:26:22.451Z,6.50
2022-08-20T08:28:45.714Z,6.85
2022-08-20T08:31:10.373Z,7.68
2022-08-20T08:33:33.660Z,7.47
2022-08-20T08:35:57.094Z,5.87
2022-08-20T08:38:20.370Z,7.13
2022-08-20T08:40:43.637Z,6.38
2022-08-20T08:43:07.903Z,6.47
2022-08-20T08:45:43.846Z,6.95
2022-08-20T08:48:08.863Z,7.57
2022-08-20T08:50:54.122Z,6.50
2022-08-20T08:53:18.710Z,6.60
2022-08-20T08:55:42.159Z,6.65
2022-08-20T08:58:16.869Z,7.47
2022-08-20T09:00:55.977Z,6.72
2022-08-20T09:03:26.010Z,7.30
2022-08-20T09:05:50.825Z,7.03
2022-08-20T09:08:17.119Z,8.00
2022-08-20T09:10:40.621Z,7.50
2022-08-20T09:13:03.969Z,8.07
2022-08-20T09:15:27.231Z,7.38
2022-08-20T09:17:50.600Z,6.90
2022-08-20T09:20:15.399Z,7.07
2022-08-20T09:22:38.704Z,8.27
2022-08-20T09:25:03.626Z,6.47
2022-08-20T09:27:26.999Z,7.80
2022-08-20T09:29:50.368Z,7.10
2022-08-20T09:32:15.725Z,7.63
2022-08-20T09:34:40.917Z,6.75
2022-08-20T09:37:05.741Z,7.13
2022-08-20T09:39:29.202Z,6.93
2022-08-20T09:41:52.619Z,6.47
2022-08-20T09:44:15.898Z,7.72
2022-08-20T09:46:39.239Z,7.90
2022-08-20T09:49:02.483Z,8.23
2022-08-20T09:51:25.809Z,8.73
2022-08-20T09:53:50.489Z,9.52
2022-08-20T09:56:13.791Z,8.20
2022-08-20T09:58:38.932Z,8.13
2022-08-20T10:01:02.894Z,8.02
2022-08-20T10:03:26.336Z,9.10
2022-08-20T10:05:49.615Z,8.13
2022-08-20T10:08:13.390Z,8.50
2022-08-20T10:10:38.039Z,8.18
2022-08-20T10:13:02.536Z,8.05
2022-08-20T10:15:25.843Z,7.85
2022-08-20T10:17:49.295Z,9.27
2022-08-20T10:20:13.390Z,8.27
2022-08-20T10:22:36.855Z,7.47
2022-08-20T10:25:00.221Z,8.70
2022-08-20T10:27:24.979Z,9.47
2022-08-20T10:29:48.248Z,10.27
2022-08-20T10:32:12.433Z,8.97
2022-08-20T10:34:36.338Z,8.18
2022-08-20T10:37:00.168Z,9.20
2022-08-20T10:39:23.526Z,9.25
2022-08-20T10:41:46.877Z,8.77
2022-08-20T10:44:11.513Z,9.93
2022-08-20T10:46:34.867Z,9.23
2022-08-20T10:48:58.072Z,9.75
2022-08-20T10:51:21.331Z,9.23
2022-08-20T10:53:55.787Z,9.68
2022-08-20T10:56:19.074Z,10.18
2022-08-20T10:58:42.418Z,9.37
2022-08-20T11:01:09.263Z,9.02
2022-08-20T11:03:32.613Z,9.00
2022-08-20T11:05:55.861Z,9.30
2022-08-20T11:08:33.586Z,10.10
2022-08-20T11:10:57.777Z,8.45
2022-08-20T11:13:21.057Z,7.95
2022-08-20T11:15:44.458Z,8.80
2022-08-20T11:18:09.505Z,8.90
2022-08-20T11:20:32.887Z,8.90
2022-08-20T11:22:56.216Z,9.67
2022-08-20T11:25:19.681Z,8.05
2022-08-20T11:27:45.190Z,8.15
2022-08-20T11:30:10.671Z,9.38
2022-08-20T11:32:33.947Z,8.07
2022-08-20T11:34:58.618Z,9.30
2022-08-20T11:37:22.992Z,8.98
2022-08-20T11:42:09.426Z,7.38
2022-08-20T11:44:32.634Z,8.55
2022-08-20T11:46:59.846Z,8.52
2022-08-20T11:49:23.151Z,8.60
2022-08-20T11:51:50.162Z,9.73
2022-08-20T11:54:13.700Z,7.70
2022-08-20T11:56:38.579Z,7.85
2022-08-20T11:59:09.043Z,6.75
2022-08-20T12:01:35.211Z,7.35
2022-08-20T12:03:58.506Z,8.13
2022-08-20T12:06:21.826Z,8.18
2022-08-20T12:08:46.470Z,7.07
2022-08-20T12:11:09.735Z,8.23
2022-08-20T12:13:47.826Z,8.80
2022-08-20T12:16:12.442Z,8.93
2022-08-20T12:18:35.782Z,9.43
2022-08-20T12:20:59.129Z,8.00
2022-08-20T12:23:22.486Z,8.87
2022-08-20T12:25:47.108Z,7.53
2022-08-20T12:28:10.480Z,8.32
2022-08-20T12:30:33.983Z,7.30
2022-08-20T12:32:57.425Z,7.85
2022-08-20T12:35:21.226Z,7.80
2022-08-20T12:37:44.609Z,7.15
2022-08-20T12:40:10.800Z,7.28
2022-08-20T12:42:35.696Z,8.13
2022-08-20T12:44:59.755Z,8.18
2022-08-20T12:47:24.177Z,7.03
2022-08-20T12:52:11.008Z,8.77
2022-08-20T12:54:34.322Z,8.10
2022-08-20T12:56:57.522Z,7.65
2022-08-20T12:59:25.925Z,8.73
2022-08-20T13:01:49.538Z,7.57
2022-08-20T13:04:12.826Z,7.33
2022-08-20T13:06:36.036Z,6.60
2022-08-20T13:08:59.380Z,7.28
2022-08-20T13:11:22.689Z,8.00
2022-08-20T13:13:47.728Z,7.53
2022-08-20T13:16:12.405Z,6.13
2022-08-20T13:18:35.885Z,7.32
2022-08-20T13:20:59.157Z,7.10
2022-08-20T13:23:22.516Z,6.03
2022-08-20T13:25:45.784Z,6.53
2022-08-20T13:28:09.096Z,6.93
2022-08-20T13:30:32.504Z,5.70
2022-08-20T13:32:57.269Z,6.53
2022-08-20T13:35:20.792Z,8.27
2022-08-20T13:37:44.050Z,6.32
2022-08-20T13:40:08.583Z,6.10
2022-08-20T13:42:31.961Z,7.70
2022-08-20T13:44:55.337Z,7.30
2022-08-20T13:47:20.198Z,6.43
2022-08-20T13:49:44.867Z,7.05
2022-08-20T13:52:08.235Z,6.97
2022-08-20T13:54:31.762Z,6.70
2022-08-20T13:56:55.067Z,8.05
2022-08-20T13:59:18.454Z,7.73
2022-08-20T14:01:42.337Z,7.53
2022-08-20T14:04:05.933Z,7.03
2022-08-20T14:06:31.678Z,7.87
2022-08-20T14:08:55.067Z,6.60
2022-08-20T14:11:19.327Z,7.15
2022-08-20T14:13:42.809Z,6.38
2022-08-20T14:16:06.203Z,6.70
2022-08-20T14:18:44.986Z,6.70
2022-08-20T14:21:12.229Z,6.93
2022-08-20T14:23:37.235Z,8.40
2022-08-20T14:26:00.851Z,7.50
2022-08-20T14:28:24.981Z,7.38
2022-08-20T14:30:52.864Z,7.38
2022-08-20T14:33:16.834Z,6.53
2022-08-20T14:35:40.203Z,6.20
2022-08-20T14:38:05.420Z,7.25
2022-08-20T14:40:30.345Z,7.18
2022-08-20T14:42:53.834Z,6.60
2022-08-20T14:45:17.279Z,7.32
2022-08-20T14:47:42.362Z,7.03
2022-08-20T14:50:09.360Z,6.15
2022-08-20T14:52:33.021Z,7.45
2022-08-20T14:54:56.486Z,6.93
2022-08-20T14:57:21.237Z,6.63
2022-08-20T14:59:44.500Z,6.82
2022-08-20T15:02:08.658Z,7.53
2022-08-20T15:04:31.963Z,8.10
2022-08-20T15:06:55.199Z,7.50
2022-08-20T15:09:22.290Z,6.35
2022-08-20T15:11:46.097Z,7.87
2022-08-20T15:14:10.822Z,6.53
2022-08-20T15:16:34.392Z,6.72
2022-08-20T15:18:59.653Z,7.63
2022-08-20T15:21:23.289Z,7.10
2022-08-20T15:23:46.659Z,7.70
2022-08-20T15:26:09.914Z,7.75
2022-08-20T15:28:33.302Z,7.20
2022-08-20T15:30:58.124Z,7.65
2022-08-20T15:33:21.384Z,8.20
2022-08-20T15:35:44.731Z,7.37
2022-08-20T15:38:08.020Z,7.47
2022-08-20T15:40:32.517Z,6.93
2022-08-20T15:42:55.806Z,6.75
2022-08-20T15:45:22.077Z,7.22
2022-08-20T15:47:53.000Z,7.43
2022-08-20T15:50:19.201Z,7.78
2022-08-20T15:52:43.991Z,8.32
2022-08-20T15:55:08.129Z,7.68
2022-08-20T15:57:38.497Z,6.80
2022-08-20T16:00:10.347Z,6.50
2022-08-20T16:03:06.792Z,7.82
2022-08-20T16:05:37.954Z,7.55
2022-08-20T16:08:08.692Z,6.38
2022-08-20T16:10:36.254Z,7.13
2022-08-20T16:13:01.039Z,6.25
2022-08-20T16:15:25.478Z,6.18
2022-08-20T16:17:50.439Z,7.70
2022-08-20T16:20:18.833Z,7.95
2022-08-20T16:22:44.213Z,6.43
2022-08-20T16:25:08.121Z,6.70
2022-08-20T16:27:35.771Z,7.03
2022-08-20T16:30:01.362Z,7.07
2022-08-20T16:32:33.329Z,6.60
2022-08-20T16:34:57.948Z,7.05
2022-08-20T16:37:26.438Z,6.63
2022-08-20T16:39:53.460Z,7.25
2022-08-20T16:42:16.782Z,6.20
2022-08-20T16:44:40.890Z,7.15
2022-08-20T16:47:14.242Z,5.53
2022-08-20T16:49:38.347Z,6.38
2022-08-20T16:52:02.946Z,7.32
2022-08-20T16:54:28.305Z,7.77
2022-08-20T16:56:59.230Z,7.07
2022-08-20T16:59:27.059Z,7.65
2022-08-20T17:01:51.140Z,6.80
2022-08-20T17:04:20.922Z,6.53
2022-08-20T17:06:46.897Z,6.75
2022-08-20T17:09:12.357Z,7.00
2022-08-20T17:11:37.099Z,7.20
2022-08-20T17:14:14.090Z,6.53
2022-08-20T17:16:39.068Z,7.53
2022-08-20T17:19:09.527Z,6.05
2022-08-20T17:21:35.618Z,6.82
2022-08-20T17:24:00.265Z,6.78
2022-08-20T17:26:26.102Z,6.45
2022-08-20T17:28:55.860Z,6.28
2022-08-20T17:31:38.627Z,6.78
2022-08-20T17:34:02.531Z,7.22
2022-08-20T17:36:26.384Z,6.60
2022-08-20T17:38:51.014Z,6.75
2022-08-20T17:41:25.554Z,7.25
2022-08-20T17:43:48.937Z,6.88
2022-08-20T17:46:16.717Z,7.05
2022-08-20T17:48:42.666Z,6.75
2022-08-20T17:51:12.090Z,6.68
2022-08-20T17:53:39.206Z,7.28
2022-08-20T17:56:04.090Z,7.28
2022-08-20T17:58:32.742Z,7.65
2022-08-20T18:00:56.012Z,7.32
2022-08-20T18:03:23.462Z,7.25
2022-08-20T18:05:47.166Z,6.68
2022-08-20T18:08:16.742Z,7.43
2022-08-20T18:10:43.801Z,7.28
2022-08-20T18:13:09.378Z,8.05
2022-08-20T18:15:33.159Z,7.68
2022-08-20T18:18:04.574Z,6.05
2022-08-20T18:21:05.764Z,6.38
2022-08-20T18:23:29.797Z,8.27
2022-08-20T18:25:54.741Z,6.93
2022-08-20T18:28:20.318Z,7.35
2022-08-20T18:30:51.655Z,7.22
2022-08-20T18:33:15.018Z,7.32
2022-08-20T18:35:45.547Z,7.20
2022-08-20T18:38:26.048Z,7.60
2022-08-20T18:40:53.100Z,7.30
2022-08-20T18:43:27.425Z,6.47
2022-08-20T18:45:50.708Z,6.93
2022-08-20T18:48:21.861Z,7.25
2022-08-20T18:50:46.118Z,7.25
2022-08-20T18:53:12.554Z,8.13
2022-08-20T18:55:38.653Z,6.57
2022-08-20T18:58:02.748Z,7.63
2022-08-20T19:02:56.580Z,8.48
2022-08-20T19:05:26.695Z,10.93
2022-08-20T19:07:49.943Z,8.85
2022-08-20T19:10:28.584Z,8.23
2022-08-20T19:13:33.313Z,7.82
2022-08-20T19:16:02.148Z,8.27
2022-08-20T19:18:26.892Z,8.55
2022-08-20T19:20:52.706Z,8.55
2022-08-20T19:23:20.087Z,8.07
2022-08-20T19:25:49.662Z,8.85
2022-08-20T19:28:18.751Z,8.38
2022-08-20T19:30:43.450Z,7.78
2022-08-20T19:33:09.215Z,7.50
2022-08-20T19:35:32.521Z,7.25
2022-08-20T19:37:55.902Z,7.97
2022-08-20T19:42:44.427Z,10.27
2022-08-20T19:45:08.943Z,7.88
2022-08-20T19:47:34.701Z,8.10
2022-08-20T19:50:06.314Z,8.15
2022-08-20T19:52:37.062Z,8.27
2022-08-20T19:55:04.078Z,7.03
2022-08-20T19:57:27.590Z,6.93
2022-08-20T19:59:56.250Z,7.88
2022-08-20T20:02:20.597Z,7.95
2022-08-20T20:04:55.776Z,7.30
2022-08-20T20:07:24.139Z,7.07
2022-08-20T20:09:47.627Z,7.35
2022-08-20T20:12:22.527Z,6.55
2022-08-20T20:14:46.582Z,5.97
2022-08-20T20:17:14.535Z,7.00
2022-08-20T20:19:46.182Z,7.85
2022-08-20T20:22:19.637Z,6.60
2022-08-20T20:24:45.818Z,7.33
2022-08-20T20:27:10.462Z,7.47
2022-08-20T20:29:37.623Z,7.45
2022-08-20T20:32:01.321Z,7.72
2022-08-20T20:34:26.651Z,6.72
2022-08-20T20:36:50.045Z,7.38
2022-08-20T20:39:26.027Z,7.17
2022-08-20T20:41:53.441Z,8.25
2022-08-20T20:44:20.395Z,7.28
2022-08-20T20:46:46.135Z,7.28
2022-08-20T20:49:16.646Z,6.85
2022-08-20T20:51:41.211Z,8.13
2022-08-20T20:54:06.719Z,8.73
2022-08-20T20:56:32.804Z,8.45
2022-08-20T20:58:58.612Z,7.00
2022-08-20T21:01:27.224Z,7.82
2022-08-20T21:04:05.364Z,6.70
2022-08-20T21:06:29.426Z,7.53
2022-08-20T21:08:52.860Z,8.05
2022-08-20T21:11:16.138Z,8.43
2022-08-20T21:13:39.432Z,8.10
2022-08-20T21:16:09.436Z,7.90
2022-08-20T21:18:36.456Z,6.55
2022-08-20T21:20:59.718Z,7.47
2022-08-20T21:23:40.007Z,8.30
2022-08-20T21:26:05.597Z,8.13
2022-08-20T21:28:28.928Z,7.77
2022-08-20T21:30:58.602Z,7.03
2022-08-20T21:33:23.419Z,8.60
2022-08-20T21:35:46.869Z,7.00
2022-08-20T21:38:10.164Z,7.43
2022-08-20T21:40:37.259Z,7.15
2022-08-20T21:43:00.478Z,7.90
2022-08-20T21:45:24.028Z,8.03
2022-08-20T21:47:51.665Z,6.85
2022-08-20T21:50:16.575Z,7.07
2022-08-20T21:52:42.366Z,7.55
2022-08-20T21:55:21.443Z,7.78
2022-08-20T21:57:44.733Z,7.82
2022-08-20T22:00:12.429Z,6.70
2022-08-20T22:02:35.705Z,7.28
2022-08-20T22:04:59.123Z,6.60
2022-08-20T22:07:23.763Z,7.65
2022-08-20T22:09:47.088Z,8.10
2022-08-20T22:12:15.760Z,6.35
2022-08-20T22:14:39.061Z,7.65
2022-08-20T22:17:02.295Z,7.68
2022-08-20T22:19:25.670Z,6.47
2022-08-20T22:21:49.489Z,6.97
2022-08-20T22:24:14.250Z,7.65
2022-08-20T22:26:38.334Z,7.28
2022-08-20T22:29:01.662Z,7.60
2022-08-20T22:31:27.301Z,6.88
2022-08-20T22:33:50.678Z,7.93
2022-08-20T22:36:13.933Z,7.40
2022-08-20T22:38:37.257Z,6.47
2022-08-20T22:41:04.239Z,6.88
2022-08-20T22:43:30.990Z,6.72
2022-08-20T22:45:55.638Z,7.85
2022-08-20T22:48:19.869Z,8.15
2022-08-20T22:50:43.135Z,6.75
2022-08-20T22:53:06.426Z,7.38
2022-08-20T22:55:29.661Z,7.63
2022-08-20T22:57:54.417Z,7.63
2022-08-20T23:00:20.293Z,8.10
2022-08-20T23:02:43.847Z,7.40
2022-08-20T23:05:07.634Z,8.07
2022-08-20T23:07:31.158Z,7.13
2022-08-20T23:09:54.442Z,7.37
2022-08-20T23:12:17.670Z,6.97
2022-08-20T23:14:42.444Z,6.72
2022-08-20T23:17:11.343Z,7.80
2022-08-20T23:19:36.426Z,7.25
2022-08-20T23:21:59.770Z,6.90
2022-08-20T23:24:23.005Z,6.75
2022-08-20T23:26:52.416Z,7.88
2022-08-20T23:29:16.694Z,7.28
2022-08-20T23:31:47.268Z,7.43
2022-08-20T23:34:11.649Z,7.07
2022-08-20T23:36:36.518Z,7.00
2022-08-20T23:38:59.762Z,8.13
2022-08-20T23:41:24.547Z,7.93
2022-08-20T23:43:47.775Z,7.15
2022-08-20T23:46:11.198Z,7.35
2022-08-20T23:48:35.985Z,8.00
2022-08-20T23:50:59.295Z,7.65
2022-08-20T23:53:22.534Z,9.32
2022-08-20T23:55:46.334Z,9.15
2022-08-20T23:58:09.758Z,10.38
